sensor_id;sensor_type;location;lat;lon;timestamp;P1;durP1;ratioP1;P2;durP2;ratioP2
12884;SDS011;6510;51.362;7.370;2023-09-07T00:01:17;0.10;;;0.10;;
12884;SDS011;6510;51.362;7.370;2023-09-07T00:03:43;0.10;;;0.10;;
12884;SDS011;6510;51.362;7.370;2023-09-07T00:06:09;0.10;;;0.10;;
12884;SDS011;6510;51.362;7.370;2023-09-07T00:08:34;0.10;;;0.10;;
12884;SDS011;6510;51.362;7.370;2023-09-07T00:11:06;0.10;;;0.10;;
12884;SDS011;6510;51.362;7.370;2023-09-07T00:13:33;0.10;;;0.10;;
12884;SDS011;6510;51.362;7.370;2023-09-07T00:15:59;0.10;;;0.10;;
12884;SDS011;6510;51.362;7.370;2023-09-07T00:18:25;0.10;;;0.10;;
12884;SDS011;6510;51.362;7.370;2023-09-07T00:20:51;0.10;;;0.10;;
12884;SDS011;6510;51.362;7.370;2023-09-07T00:23:17;0.10;;;0.10;;
12884;SDS011;6510;51.362;7.370;2023-09-07T00:25:44;0.10;;;0.10;;
12884;SDS011;6510;51.362;7.370;2023-09-07T00:28:10;0.10;;;0.10;;
12884;SDS011;6510;51.362;7.370;2023-09-07T00:30:36;0.10;;;0.10;;
12884;SDS011;6510;51.362;7.370;2023-09-07T00:33:05;0.10;;;0.10;;
12884;SDS011;6510;51.362;7.370;2023-09-07T00:35:30;0.10;;;0.10;;
12884;SDS011;6510;51.362;7.370;2023-09-07T00:37:56;0.10;;;0.10;;
12884;SDS011;6510;51.362;7.370;2023-09-07T00:40:22;0.10;;;0.10;;
12884;SDS011;6510;51.362;7.370;2023-09-07T00:42:51;0.10;;;0.10;;
12884;SDS011;6510;51.362;7.370;2023-09-07T00:45:17;0.10;;;0.10;;
12884;SDS011;6510;51.362;7.370;2023-09-07T00:47:43;0.00;;;0.00;;
12884;SDS011;6510;51.362;7.370;2023-09-07T00:50:09;0.10;;;0.10;;
12884;SDS011;6510;51.362;7.370;2023-09-07T00:52:35;0.10;;;0.10;;
12884;SDS011;6510;51.362;7.370;2023-09-07T00:55:05;0.10;;;0.10;;
12884;SDS011;6510;51.362;7.370;2023-09-07T00:57:31;0.08;;;0.08;;
12884;SDS011;6510;51.362;7.370;2023-09-07T00:59:57;0.00;;;0.00;;
12884;SDS011;6510;51.362;7.370;2023-09-07T01:02:23;0.10;;;0.10;;
12884;SDS011;6510;51.362;7.370;2023-09-07T01:04:50;0.10;;;0.10;;
12884;SDS011;6510;51.362;7.370;2023-09-07T01:09:45;0.10;;;0.10;;
12884;SDS011;6510;51.362;7.370;2023-09-07T01:12:17;0.10;;;0.10;;
12884;SDS011;6510;51.362;7.370;2023-09-07T01:14:42;0.10;;;0.10;;
12884;SDS011;6510;51.362;7.370;2023-09-07T01:17:08;0.05;;;0.05;;
12884;SDS011;6510;51.362;7.370;2023-09-07T01:19:35;0.10;;;0.10;;
12884;SDS011;6510;51.362;7.370;2023-09-07T01:22:01;0.10;;;0.10;;
12884;SDS011;6510;51.362;7.370;2023-09-07T01:24:28;0.00;;;0.00;;
12884;SDS011;6510;51.362;7.370;2023-09-07T01:26:55;0.00;;;0.00;;
12884;SDS011;6510;51.362;7.370;2023-09-07T01:29:22;0.10;;;0.10;;
12884;SDS011;6510;51.362;7.370;2023-09-07T01:31:47;0.10;;;0.10;;
12884;SDS011;6510;51.362;7.370;2023-09-07T01:34:13;0.10;;;0.10;;
12884;SDS011;6510;51.362;7.370;2023-09-07T01:36:39;0.10;;;0.10;;
12884;SDS011;6510;51.362;7.370;2023-09-07T01:39:05;0.00;;;0.00;;
12884;SDS011;6510;51.362;7.370;2023-09-07T01:41:31;0.00;;;0.00;;
12884;SDS011;6510;51.362;7.370;2023-09-07T01:43:58;0.10;;;0.10;;
12884;SDS011;6510;51.362;7.370;2023-09-07T01:46:24;0.10;;;0.10;;
12884;SDS011;6510;51.362;7.370;2023-09-07T01:48:49;0.10;;;0.10;;
12884;SDS011;6510;51.362;7.370;2023-09-07T01:51:15;0.00;;;0.00;;
12884;SDS011;6510;51.362;7.370;2023-09-07T01:53:40;0.10;;;0.10;;
12884;SDS011;6510;51.362;7.370;2023-09-07T01:56:06;0.10;;;0.10;;
12884;SDS011;6510;51.362;7.370;2023-09-07T01:58:32;0.10;;;0.10;;
12884;SDS011;6510;51.362;7.370;2023-09-07T02:00:59;0.10;;;0.10;;
12884;SDS011;6510;51.362;7.370;2023-09-07T02:03:25;0.00;;;0.00;;
12884;SDS011;6510;51.362;7.370;2023-09-07T02:05:52;0.10;;;0.10;;
12884;SDS011;6510;51.362;7.370;2023-09-07T02:08:19;0.10;;;0.10;;
12884;SDS011;6510;51.362;7.370;2023-09-07T02:10:44;0.10;;;0.10;;
12884;SDS011;6510;51.362;7.370;2023-09-07T02:13:10;0.10;;;0.10;;
12884;SDS011;6510;51.362;7.370;2023-09-07T02:15:37;0.00;;;0.00;;
12884;SDS011;6510;51.362;7.370;2023-09-07T02:18:04;0.10;;;0.10;;
12884;SDS011;6510;51.362;7.370;2023-09-07T02:20:30;0.03;;;0.03;;
12884;SDS011;6510;51.362;7.370;2023-09-07T02:22:56;0.10;;;0.10;;
12884;SDS011;6510;51.362;7.370;2023-09-07T02:25:22;0.10;;;0.10;;
12884;SDS011;6510;51.362;7.370;2023-09-07T02:27:48;0.00;;;0.00;;
12884;SDS011;6510;51.362;7.370;2023-09-07T02:30:14;0.10;;;0.10;;
12884;SDS011;6510;51.362;7.370;2023-09-07T02:32:40;0.03;;;0.03;;
12884;SDS011;6510;51.362;7.370;2023-09-07T02:35:09;0.10;;;0.10;;
12884;SDS011;6510;51.362;7.370;2023-09-07T02:37:35;0.10;;;0.10;;
12884;SDS011;6510;51.362;7.370;2023-09-07T02:40:01;0.08;;;0.08;;
12884;SDS011;6510;51.362;7.370;2023-09-07T02:42:31;0.00;;;0.00;;
12884;SDS011;6510;51.362;7.370;2023-09-07T02:44:57;0.10;;;0.10;;
12884;SDS011;6510;51.362;7.370;2023-09-07T02:47:23;0.10;;;0.10;;
12884;SDS011;6510;51.362;7.370;2023-09-07T02:49:48;0.10;;;0.10;;
12884;SDS011;6510;51.362;7.370;2023-09-07T02:52:14;0.10;;;0.10;;
12884;SDS011;6510;51.362;7.370;2023-09-07T02:54:39;0.10;;;0.10;;
12884;SDS011;6510;51.362;7.370;2023-09-07T02:57:06;0.10;;;0.10;;
12884;SDS011;6510;51.362;7.370;2023-09-07T02:59:32;0.10;;;0.10;;
12884;SDS011;6510;51.362;7.370;2023-09-07T03:01:58;0.00;;;0.00;;
12884;SDS011;6510;51.362;7.370;2023-09-07T03:04:23;0.10;;;0.10;;
12884;SDS011;6510;51.362;7.370;2023-09-07T03:06:49;0.10;;;0.10;;
12884;SDS011;6510;51.362;7.370;2023-09-07T03:09:15;0.10;;;0.10;;
12884;SDS011;6510;51.362;7.370;2023-09-07T03:11:40;0.00;;;0.00;;
12884;SDS011;6510;51.362;7.370;2023-09-07T03:14:06;0.10;;;0.10;;
12884;SDS011;6510;51.362;7.370;2023-09-07T03:16:32;0.10;;;0.10;;
12884;SDS011;6510;51.362;7.370;2023-09-07T03:18:57;0.00;;;0.00;;
12884;SDS011;6510;51.362;7.370;2023-09-07T03:21:23;0.10;;;0.10;;
12884;SDS011;6510;51.362;7.370;2023-09-07T03:23:54;0.10;;;0.10;;
12884;SDS011;6510;51.362;7.370;2023-09-07T03:26:21;0.07;;;0.07;;
12884;SDS011;6510;51.362;7.370;2023-09-07T03:28:47;0.05;;;0.05;;
12884;SDS011;6510;51.362;7.370;2023-09-07T03:31:12;0.10;;;0.10;;
12884;SDS011;6510;51.362;7.370;2023-09-07T03:33:38;0.10;;;0.10;;
12884;SDS011;6510;51.362;7.370;2023-09-07T03:36:03;0.10;;;0.10;;
12884;SDS011;6510;51.362;7.370;2023-09-07T03:38:29;0.00;;;0.00;;
12884;SDS011;6510;51.362;7.370;2023-09-07T03:40:55;0.10;;;0.10;;
12884;SDS011;6510;51.362;7.370;2023-09-07T03:43:21;0.03;;;0.03;;
12884;SDS011;6510;51.362;7.370;2023-09-07T03:45:46;0.03;;;0.03;;
12884;SDS011;6510;51.362;7.370;2023-09-07T03:48:12;0.10;;;0.10;;
12884;SDS011;6510;51.362;7.370;2023-09-07T03:50:37;0.10;;;0.10;;
12884;SDS011;6510;51.362;7.370;2023-09-07T03:53:03;0.10;;;0.10;;
12884;SDS011;6510;51.362;7.370;2023-09-07T03:55:29;0.10;;;0.10;;
12884;SDS011;6510;51.362;7.370;2023-09-07T03:57:54;0.10;;;0.10;;
12884;SDS011;6510;51.362;7.370;2023-09-07T04:00:20;0.00;;;0.00;;
12884;SDS011;6510;51.362;7.370;2023-09-07T04:02:46;0.10;;;0.10;;
12884;SDS011;6510;51.362;7.370;2023-09-07T04:05:11;0.07;;;0.07;;
12884;SDS011;6510;51.362;7.370;2023-09-07T04:07:37;0.00;;;0.00;;
12884;SDS011;6510;51.362;7.370;2023-09-07T04:10:05;0.10;;;0.10;;
12884;SDS011;6510;51.362;7.370;2023-09-07T04:12:31;0.00;;;0.00;;
12884;SDS011;6510;51.362;7.370;2023-09-07T04:14:58;0.10;;;0.10;;
12884;SDS011;6510;51.362;7.370;2023-09-07T04:17:25;0.00;;;0.00;;
12884;SDS011;6510;51.362;7.370;2023-09-07T04:19:50;0.00;;;0.00;;
12884;SDS011;6510;51.362;7.370;2023-09-07T04:22:16;0.00;;;0.00;;
12884;SDS011;6510;51.362;7.370;2023-09-07T04:24:42;0.00;;;0.00;;
12884;SDS011;6510;51.362;7.370;2023-09-07T04:27:07;0.10;;;0.10;;
12884;SDS011;6510;51.362;7.370;2023-09-07T04:29:33;0.10;;;0.10;;
12884;SDS011;6510;51.362;7.370;2023-09-07T04:31:58;0.00;;;0.00;;
12884;SDS011;6510;51.362;7.370;2023-09-07T04:34:24;0.10;;;0.10;;
12884;SDS011;6510;51.362;7.370;2023-09-07T04:36:50;0.10;;;0.10;;
12884;SDS011;6510;51.362;7.370;2023-09-07T04:39:16;0.00;;;0.00;;
12884;SDS011;6510;51.362;7.370;2023-09-07T04:41:41;0.00;;;0.00;;
12884;SDS011;6510;51.362;7.370;2023-09-07T04:44:07;0.10;;;0.10;;
12884;SDS011;6510;51.362;7.370;2023-09-07T04:46:32;0.10;;;0.10;;
12884;SDS011;6510;51.362;7.370;2023-09-07T04:48:58;0.03;;;0.03;;
12884;SDS011;6510;51.362;7.370;2023-09-07T04:51:24;0.00;;;0.00;;
12884;SDS011;6510;51.362;7.370;2023-09-07T04:53:50;0.00;;;0.00;;
12884;SDS011;6510;51.362;7.370;2023-09-07T04:56:16;0.00;;;0.00;;
12884;SDS011;6510;51.362;7.370;2023-09-07T04:58:42;0.10;;;0.10;;
12884;SDS011;6510;51.362;7.370;2023-09-07T05:01:09;0.10;;;0.10;;
12884;SDS011;6510;51.362;7.370;2023-09-07T05:03:35;0.10;;;0.10;;
12884;SDS011;6510;51.362;7.370;2023-09-07T05:06:01;0.00;;;0.00;;
12884;SDS011;6510;51.362;7.370;2023-09-07T05:08:30;0.00;;;0.00;;
12884;SDS011;6510;51.362;7.370;2023-09-07T05:10:59;0.10;;;0.10;;
12884;SDS011;6510;51.362;7.370;2023-09-07T05:13:28;0.00;;;0.00;;
12884;SDS011;6510;51.362;7.370;2023-09-07T05:15:55;0.00;;;0.00;;
12884;SDS011;6510;51.362;7.370;2023-09-07T05:18:22;0.00;;;0.00;;
12884;SDS011;6510;51.362;7.370;2023-09-07T05:20:48;0.10;;;0.10;;
12884;SDS011;6510;51.362;7.370;2023-09-07T05:23:16;0.00;;;0.00;;
12884;SDS011;6510;51.362;7.370;2023-09-07T05:25:44;0.00;;;0.00;;
12884;SDS011;6510;51.362;7.370;2023-09-07T05:28:10;0.03;;;0.03;;
12884;SDS011;6510;51.362;7.370;2023-09-07T05:30:37;0.00;;;0.00;;
12884;SDS011;6510;51.362;7.370;2023-09-07T05:33:03;0.10;;;0.10;;
12884;SDS011;6510;51.362;7.370;2023-09-07T05:35:28;0.00;;;0.00;;
12884;SDS011;6510;51.362;7.370;2023-09-07T05:37:57;0.00;;;0.00;;
12884;SDS011;6510;51.362;7.370;2023-09-07T05:40:23;0.07;;;0.07;;
12884;SDS011;6510;51.362;7.370;2023-09-07T05:42:49;0.10;;;0.10;;
12884;SDS011;6510;51.362;7.370;2023-09-07T05:45:15;0.07;;;0.07;;
12884;SDS011;6510;51.362;7.370;2023-09-07T05:47:40;0.10;;;0.10;;
12884;SDS011;6510;51.362;7.370;2023-09-07T05:50:06;0.00;;;0.00;;
12884;SDS011;6510;51.362;7.370;2023-09-07T05:52:32;0.00;;;0.00;;
12884;SDS011;6510;51.362;7.370;2023-09-07T05:54:58;0.07;;;0.07;;
12884;SDS011;6510;51.362;7.370;2023-09-07T05:57:23;0.00;;;0.00;;
12884;SDS011;6510;51.362;7.370;2023-09-07T05:59:49;0.10;;;0.10;;
12884;SDS011;6510;51.362;7.370;2023-09-07T06:02:14;0.00;;;0.00;;
12884;SDS011;6510;51.362;7.370;2023-09-07T06:04:40;0.10;;;0.10;;
12884;SDS011;6510;51.362;7.370;2023-09-07T06:07:06;0.08;;;0.08;;
12884;SDS011;6510;51.362;7.370;2023-09-07T06:09:31;0.05;;;0.05;;
12884;SDS011;6510;51.362;7.370;2023-09-07T06:11:57;0.10;;;0.10;;
12884;SDS011;6510;51.362;7.370;2023-09-07T06:14:22;0.10;;;0.10;;
12884;SDS011;6510;51.362;7.370;2023-09-07T06:16:48;0.00;;;0.00;;
12884;SDS011;6510;51.362;7.370;2023-09-07T06:19:13;0.00;;;0.00;;
12884;SDS011;6510;51.362;7.370;2023-09-07T06:21:39;0.10;;;0.10;;
12884;SDS011;6510;51.362;7.370;2023-09-07T06:24:05;0.10;;;0.10;;
12884;SDS011;6510;51.362;7.370;2023-09-07T06:26:31;0.05;;;0.05;;
12884;SDS011;6510;51.362;7.370;2023-09-07T06:28:57;0.10;;;0.10;;
12884;SDS011;6510;51.362;7.370;2023-09-07T06:31:25;0.10;;;0.10;;
12884;SDS011;6510;51.362;7.370;2023-09-07T06:33:50;0.10;;;0.10;;
12884;SDS011;6510;51.362;7.370;2023-09-07T06:36:16;0.10;;;0.10;;
12884;SDS011;6510;51.362;7.370;2023-09-07T06:38:42;0.10;;;0.10;;
12884;SDS011;6510;51.362;7.370;2023-09-07T06:41:07;0.20;;;0.20;;
12884;SDS011;6510;51.362;7.370;2023-09-07T06:43:34;0.20;;;0.20;;
12884;SDS011;6510;51.362;7.370;2023-09-07T06:46:02;0.30;;;0.30;;
12884;SDS011;6510;51.362;7.370;2023-09-07T06:48:30;0.30;;;0.30;;
12884;SDS011;6510;51.362;7.370;2023-09-07T06:51:00;0.28;;;0.28;;
12884;SDS011;6510;51.362;7.370;2023-09-07T06:53:30;0.30;;;0.30;;
12884;SDS011;6510;51.362;7.370;2023-09-07T06:55:57;0.30;;;0.30;;
12884;SDS011;6510;51.362;7.370;2023-09-07T06:58:26;0.20;;;0.20;;
12884;SDS011;6510;51.362;7.370;2023-09-07T07:00:52;0.20;;;0.20;;
12884;SDS011;6510;51.362;7.370;2023-09-07T07:03:18;0.20;;;0.20;;
12884;SDS011;6510;51.362;7.370;2023-09-07T07:05:44;0.20;;;0.20;;
12884;SDS011;6510;51.362;7.370;2023-09-07T07:08:09;0.22;;;0.22;;
12884;SDS011;6510;51.362;7.370;2023-09-07T07:10:35;0.20;;;0.20;;
12884;SDS011;6510;51.362;7.370;2023-09-07T07:13:01;0.20;;;0.20;;
12884;SDS011;6510;51.362;7.370;2023-09-07T07:15:26;0.30;;;0.30;;
12884;SDS011;6510;51.362;7.370;2023-09-07T07:17:52;0.40;;;0.40;;
12884;SDS011;6510;51.362;7.370;2023-09-07T07:20:17;0.30;;;0.30;;
12884;SDS011;6510;51.362;7.370;2023-09-07T07:22:43;0.50;;;0.50;;
12884;SDS011;6510;51.362;7.370;2023-09-07T07:25:10;0.35;;;0.35;;
12884;SDS011;6510;51.362;7.370;2023-09-07T07:27:36;0.50;;;0.50;;
12884;SDS011;6510;51.362;7.370;2023-09-07T07:30:01;0.50;;;0.50;;
12884;SDS011;6510;51.362;7.370;2023-09-07T07:32:28;0.50;;;0.50;;
12884;SDS011;6510;51.362;7.370;2023-09-07T07:34:53;0.80;;;0.80;;
12884;SDS011;6510;51.362;7.370;2023-09-07T07:37:19;0.63;;;0.63;;
12884;SDS011;6510;51.362;7.370;2023-09-07T07:39:45;0.60;;;0.60;;
12884;SDS011;6510;51.362;7.370;2023-09-07T07:42:10;0.70;;;0.70;;
12884;SDS011;6510;51.362;7.370;2023-09-07T07:44:37;0.70;;;0.70;;
12884;SDS011;6510;51.362;7.370;2023-09-07T07:47:03;0.68;;;0.68;;
12884;SDS011;6510;51.362;7.370;2023-09-07T07:49:28;0.70;;;0.70;;
12884;SDS011;6510;51.362;7.370;2023-09-07T07:51:54;0.85;;;0.85;;
12884;SDS011;6510;51.362;7.370;2023-09-07T07:54:22;0.80;;;0.80;;
12884;SDS011;6510;51.362;7.370;2023-09-07T07:56:49;0.60;;;0.60;;
12884;SDS011;6510;51.362;7.370;2023-09-07T07:59:15;0.60;;;0.60;;
12884;SDS011;6510;51.362;7.370;2023-09-07T08:01:41;0.70;;;0.70;;
12884;SDS011;6510;51.362;7.370;2023-09-07T08:04:07;0.60;;;0.60;;
12884;SDS011;6510;51.362;7.370;2023-09-07T08:06:33;0.60;;;0.60;;
12884;SDS011;6510;51.362;7.370;2023-09-07T08:08:59;0.80;;;0.80;;
12884;SDS011;6510;51.362;7.370;2023-09-07T08:11:25;0.50;;;0.50;;
12884;SDS011;6510;51.362;7.370;2023-09-07T08:13:52;0.70;;;0.70;;
12884;SDS011;6510;51.362;7.370;2023-09-07T08:16:17;0.90;;;0.90;;
12884;SDS011;6510;51.362;7.370;2023-09-07T08:18:43;0.73;;;0.73;;
12884;SDS011;6510;51.362;7.370;2023-09-07T08:21:09;0.80;;;0.80;;
12884;SDS011;6510;51.362;7.370;2023-09-07T08:23:34;0.70;;;0.70;;
12884;SDS011;6510;51.362;7.370;2023-09-07T08:26:01;0.77;;;0.77;;
12884;SDS011;6510;51.362;7.370;2023-09-07T08:28:28;0.63;;;0.63;;
12884;SDS011;6510;51.362;7.370;2023-09-07T08:30:54;0.75;;;0.75;;
12884;SDS011;6510;51.362;7.370;2023-09-07T08:33:23;0.68;;;0.68;;
12884;SDS011;6510;51.362;7.370;2023-09-07T08:35:52;0.80;;;0.80;;
12884;SDS011;6510;51.362;7.370;2023-09-07T08:38:20;0.70;;;0.70;;
12884;SDS011;6510;51.362;7.370;2023-09-07T08:40:49;0.80;;;0.80;;
12884;SDS011;6510;51.362;7.370;2023-09-07T08:43:16;0.68;;;0.68;;
12884;SDS011;6510;51.362;7.370;2023-09-07T08:46:08;0.63;;;0.63;;
12884;SDS011;6510;51.362;7.370;2023-09-07T08:48:39;0.65;;;0.65;;
12884;SDS011;6510;51.362;7.370;2023-09-07T08:51:05;0.73;;;0.73;;
12884;SDS011;6510;51.362;7.370;2023-09-07T08:53:32;0.50;;;0.50;;
12884;SDS011;6510;51.362;7.370;2023-09-07T08:55:59;0.80;;;0.80;;
12884;SDS011;6510;51.362;7.370;2023-09-07T08:58:26;0.73;;;0.73;;
12884;SDS011;6510;51.362;7.370;2023-09-07T09:00:51;0.60;;;0.60;;
12884;SDS011;6510;51.362;7.370;2023-09-07T09:03:18;0.77;;;0.77;;
12884;SDS011;6510;51.362;7.370;2023-09-07T09:05:45;0.73;;;0.73;;
12884;SDS011;6510;51.362;7.370;2023-09-07T09:08:15;0.70;;;0.70;;
12884;SDS011;6510;51.362;7.370;2023-09-07T09:10:45;0.77;;;0.77;;
12884;SDS011;6510;51.362;7.370;2023-09-07T09:13:11;0.70;;;0.70;;
12884;SDS011;6510;51.362;7.370;2023-09-07T09:15:37;0.70;;;0.70;;
12884;SDS011;6510;51.362;7.370;2023-09-07T09:18:12;0.75;;;0.75;;
12884;SDS011;6510;51.362;7.370;2023-09-07T09:20:38;0.80;;;0.80;;
12884;SDS011;6510;51.362;7.370;2023-09-07T09:23:04;0.70;;;0.70;;
12884;SDS011;6510;51.362;7.370;2023-09-07T09:25:32;0.90;;;0.90;;
12884;SDS011;6510;51.362;7.370;2023-09-07T09:27:57;0.90;;;0.90;;
12884;SDS011;6510;51.362;7.370;2023-09-07T09:30:24;0.80;;;0.80;;
12884;SDS011;6510;51.362;7.370;2023-09-07T09:32:50;0.85;;;0.85;;
12884;SDS011;6510;51.362;7.370;2023-09-07T09:35:16;0.90;;;0.90;;
12884;SDS011;6510;51.362;7.370;2023-09-07T09:37:46;0.80;;;0.80;;
12884;SDS011;6510;51.362;7.370;2023-09-07T09:40:14;0.85;;;0.85;;
12884;SDS011;6510;51.362;7.370;2023-09-07T09:42:41;0.93;;;0.93;;
12884;SDS011;6510;51.362;7.370;2023-09-07T09:45:08;0.77;;;0.77;;
12884;SDS011;6510;51.362;7.370;2023-09-07T09:47:40;1.00;;;1.00;;
12884;SDS011;6510;51.362;7.370;2023-09-07T09:50:10;0.98;;;0.98;;
12884;SDS011;6510;51.362;7.370;2023-09-07T09:52:36;0.80;;;0.80;;
12884;SDS011;6510;51.362;7.370;2023-09-07T09:55:06;0.80;;;0.80;;
12884;SDS011;6510;51.362;7.370;2023-09-07T09:57:33;0.85;;;0.85;;
12884;SDS011;6510;51.362;7.370;2023-09-07T10:00:00;1.00;;;1.00;;
12884;SDS011;6510;51.362;7.370;2023-09-07T10:02:35;0.80;;;0.80;;
12884;SDS011;6510;51.362;7.370;2023-09-07T10:05:02;1.10;;;1.10;;
12884;SDS011;6510;51.362;7.370;2023-09-07T10:07:42;1.05;;;1.05;;
12884;SDS011;6510;51.362;7.370;2023-09-07T10:10:15;1.10;;;1.10;;
12884;SDS011;6510;51.362;7.370;2023-09-07T10:12:44;0.93;;;0.93;;
12884;SDS011;6510;51.362;7.370;2023-09-07T10:15:23;1.15;;;1.15;;
12884;SDS011;6510;51.362;7.370;2023-09-07T10:17:50;1.00;;;1.00;;
12884;SDS011;6510;51.362;7.370;2023-09-07T10:20:17;0.98;;;0.98;;
12884;SDS011;6510;51.362;7.370;2023-09-07T10:22:47;1.13;;;1.13;;
12884;SDS011;6510;51.362;7.370;2023-09-07T10:25:20;1.17;;;1.17;;
12884;SDS011;6510;51.362;7.370;2023-09-07T10:27:47;1.20;;;1.20;;
12884;SDS011;6510;51.362;7.370;2023-09-07T10:30:14;1.40;;;1.40;;
12884;SDS011;6510;51.362;7.370;2023-09-07T10:32:44;1.40;;;1.40;;
12884;SDS011;6510;51.362;7.370;2023-09-07T10:35:17;1.38;;;1.38;;
12884;SDS011;6510;51.362;7.370;2023-09-07T10:37:46;1.30;;;1.30;;
12884;SDS011;6510;51.362;7.370;2023-09-07T10:40:12;1.30;;;1.30;;
12884;SDS011;6510;51.362;7.370;2023-09-07T10:42:43;1.10;;;1.10;;
12884;SDS011;6510;51.362;7.370;2023-09-07T10:45:12;1.30;;;1.30;;
12884;SDS011;6510;51.362;7.370;2023-09-07T10:47:44;1.30;;;1.30;;
12884;SDS011;6510;51.362;7.370;2023-09-07T10:50:14;1.20;;;1.20;;
12884;SDS011;6510;51.362;7.370;2023-09-07T10:52:40;1.30;;;1.30;;
12884;SDS011;6510;51.362;7.370;2023-09-07T10:55:07;1.10;;;1.10;;
12884;SDS011;6510;51.362;7.370;2023-09-07T10:57:45;1.45;;;1.45;;
12884;SDS011;6510;51.362;7.370;2023-09-07T11:00:12;1.45;;;1.45;;
12884;SDS011;6510;51.362;7.370;2023-09-07T11:02:42;1.42;;;1.42;;
12884;SDS011;6510;51.362;7.370;2023-09-07T11:05:08;1.40;;;1.40;;
12884;SDS011;6510;51.362;7.370;2023-09-07T11:07:35;1.40;;;1.40;;
12884;SDS011;6510;51.362;7.370;2023-09-07T11:10:04;1.10;;;1.10;;
12884;SDS011;6510;51.362;7.370;2023-09-07T11:12:35;1.10;;;1.10;;
12884;SDS011;6510;51.362;7.370;2023-09-07T11:15:04;1.00;;;1.00;;
12884;SDS011;6510;51.362;7.370;2023-09-07T11:17:33;1.02;;;1.02;;
12884;SDS011;6510;51.362;7.370;2023-09-07T11:20:03;1.30;;;1.30;;
12884;SDS011;6510;51.362;7.370;2023-09-07T11:22:31;1.23;;;1.23;;
12884;SDS011;6510;51.362;7.370;2023-09-07T11:24:58;1.33;;;1.33;;
12884;SDS011;6510;51.362;7.370;2023-09-07T11:27:28;1.15;;;1.15;;
12884;SDS011;6510;51.362;7.370;2023-09-07T11:29:55;1.30;;;1.30;;
12884;SDS011;6510;51.362;7.370;2023-09-07T11:32:21;1.10;;;1.10;;
12884;SDS011;6510;51.362;7.370;2023-09-07T11:34:48;1.10;;;1.10;;
12884;SDS011;6510;51.362;7.370;2023-09-07T11:37:14;1.15;;;1.15;;
12884;SDS011;6510;51.362;7.370;2023-09-07T11:39:40;1.10;;;1.10;;
12884;SDS011;6510;51.362;7.370;2023-09-07T11:42:06;1.50;;;1.50;;
12884;SDS011;6510;51.362;7.370;2023-09-07T11:44:31;1.17;;;1.17;;
12884;SDS011;6510;51.362;7.370;2023-09-07T11:46:57;1.13;;;1.13;;
12884;SDS011;6510;51.362;7.370;2023-09-07T11:49:23;1.30;;;1.30;;
12884;SDS011;6510;51.362;7.370;2023-09-07T11:51:49;1.27;;;1.27;;
12884;SDS011;6510;51.362;7.370;2023-09-07T11:54:15;1.15;;;1.15;;
12884;SDS011;6510;51.362;7.370;2023-09-07T11:56:40;1.20;;;1.20;;
12884;SDS011;6510;51.362;7.370;2023-09-07T11:59:08;1.23;;;1.23;;
12884;SDS011;6510;51.362;7.370;2023-09-07T12:01:34;0.93;;;0.93;;
12884;SDS011;6510;51.362;7.370;2023-09-07T12:04:00;1.08;;;1.08;;
12884;SDS011;6510;51.362;7.370;2023-09-07T12:06:26;1.00;;;1.00;;
12884;SDS011;6510;51.362;7.370;2023-09-07T12:09:01;0.98;;;0.98;;
12884;SDS011;6510;51.362;7.370;2023-09-07T12:11:32;1.10;;;1.10;;
12884;SDS011;6510;51.362;7.370;2023-09-07T12:13:58;1.20;;;1.20;;
12884;SDS011;6510;51.362;7.370;2023-09-07T12:16:27;0.90;;;0.90;;
12884;SDS011;6510;51.362;7.370;2023-09-07T12:18:53;1.13;;;1.13;;
12884;SDS011;6510;51.362;7.370;2023-09-07T12:21:19;1.20;;;1.20;;
12884;SDS011;6510;51.362;7.370;2023-09-07T12:23:45;1.13;;;1.13;;
12884;SDS011;6510;51.362;7.370;2023-09-07T12:26:11;1.08;;;1.08;;
12884;SDS011;6510;51.362;7.370;2023-09-07T12:28:38;0.98;;;0.98;;
12884;SDS011;6510;51.362;7.370;2023-09-07T12:31:04;1.10;;;1.10;;
12884;SDS011;6510;51.362;7.370;2023-09-07T12:33:30;0.90;;;0.90;;
12884;SDS011;6510;51.362;7.370;2023-09-07T12:35:56;1.10;;;1.10;;
12884;SDS011;6510;51.362;7.370;2023-09-07T12:38:22;1.05;;;1.05;;
12884;SDS011;6510;51.362;7.370;2023-09-07T12:40:52;1.00;;;1.00;;
12884;SDS011;6510;51.362;7.370;2023-09-07T12:43:18;1.17;;;1.17;;
12884;SDS011;6510;51.362;7.370;2023-09-07T12:45:44;1.05;;;1.05;;
12884;SDS011;6510;51.362;7.370;2023-09-07T12:48:13;1.02;;;1.02;;
12884;SDS011;6510;51.362;7.370;2023-09-07T12:50:38;1.08;;;1.08;;
12884;SDS011;6510;51.362;7.370;2023-09-07T12:53:05;1.15;;;1.15;;
12884;SDS011;6510;51.362;7.370;2023-09-07T12:55:31;1.15;;;1.15;;
12884;SDS011;6510;51.362;7.370;2023-09-07T12:57:57;1.02;;;1.02;;
12884;SDS011;6510;51.362;7.370;2023-09-07T13:00:24;1.00;;;1.00;;
12884;SDS011;6510;51.362;7.370;2023-09-07T13:02:49;0.80;;;0.80;;
12884;SDS011;6510;51.362;7.370;2023-09-07T13:05:15;0.60;;;0.60;;
12884;SDS011;6510;51.362;7.370;2023-09-07T13:07:40;0.90;;;0.90;;
12884;SDS011;6510;51.362;7.370;2023-09-07T13:10:09;0.80;;;0.80;;
12884;SDS011;6510;51.362;7.370;2023-09-07T13:12:35;0.70;;;0.70;;
12884;SDS011;6510;51.362;7.370;2023-09-07T13:15:01;0.90;;;0.90;;
12884;SDS011;6510;51.362;7.370;2023-09-07T13:17:27;1.00;;;1.00;;
12884;SDS011;6510;51.362;7.370;2023-09-07T13:19:53;0.77;;;0.77;;
12884;SDS011;6510;51.362;7.370;2023-09-07T13:22:18;0.90;;;0.90;;
12884;SDS011;6510;51.362;7.370;2023-09-07T13:24:44;0.98;;;0.98;;
12884;SDS011;6510;51.362;7.370;2023-09-07T13:27:10;0.93;;;0.93;;
12884;SDS011;6510;51.362;7.370;2023-09-07T13:29:35;0.90;;;0.90;;
12884;SDS011;6510;51.362;7.370;2023-09-07T13:32:02;0.73;;;0.73;;
12884;SDS011;6510;51.362;7.370;2023-09-07T13:34:28;0.88;;;0.88;;
12884;SDS011;6510;51.362;7.370;2023-09-07T13:36:54;0.80;;;0.80;;
12884;SDS011;6510;51.362;7.370;2023-09-07T13:39:20;0.88;;;0.88;;
12884;SDS011;6510;51.362;7.370;2023-09-07T13:41:46;0.90;;;0.90;;
12884;SDS011;6510;51.362;7.370;2023-09-07T13:44:13;0.75;;;0.75;;
12884;SDS011;6510;51.362;7.370;2023-09-07T13:46:39;0.85;;;0.85;;
12884;SDS011;6510;51.362;7.370;2023-09-07T13:49:05;0.90;;;0.90;;
12884;SDS011;6510;51.362;7.370;2023-09-07T13:51:31;0.82;;;0.82;;
12884;SDS011;6510;51.362;7.370;2023-09-07T13:54:02;0.80;;;0.80;;
12884;SDS011;6510;51.362;7.370;2023-09-07T13:56:32;0.90;;;0.90;;
12884;SDS011;6510;51.362;7.370;2023-09-07T13:58:58;0.85;;;0.85;;
12884;SDS011;6510;51.362;7.370;2023-09-07T14:01:23;0.88;;;0.88;;
12884;SDS011;6510;51.362;7.370;2023-09-07T14:03:49;0.98;;;0.98;;
12884;SDS011;6510;51.362;7.370;2023-09-07T14:06:15;0.82;;;0.82;;
12884;SDS011;6510;51.362;7.370;2023-09-07T14:08:43;0.90;;;0.90;;
12884;SDS011;6510;51.362;7.370;2023-09-07T14:11:09;1.00;;;1.00;;
12884;SDS011;6510;51.362;7.370;2023-09-07T14:13:34;0.88;;;0.88;;
12884;SDS011;6510;51.362;7.370;2023-09-07T14:16:00;0.90;;;0.90;;
12884;SDS011;6510;51.362;7.370;2023-09-07T14:18:26;0.75;;;0.75;;
12884;SDS011;6510;51.362;7.370;2023-09-07T14:20:52;1.00;;;1.00;;
12884;SDS011;6510;51.362;7.370;2023-09-07T14:23:18;0.77;;;0.77;;
12884;SDS011;6510;51.362;7.370;2023-09-07T14:25:46;0.90;;;0.90;;
12884;SDS011;6510;51.362;7.370;2023-09-07T14:28:12;0.98;;;0.98;;
12884;SDS011;6510;51.362;7.370;2023-09-07T14:30:38;0.90;;;0.90;;
12884;SDS011;6510;51.362;7.370;2023-09-07T14:33:04;0.70;;;0.70;;
12884;SDS011;6510;51.362;7.370;2023-09-07T14:35:30;0.90;;;0.90;;
12884;SDS011;6510;51.362;7.370;2023-09-07T14:37:56;0.90;;;0.90;;
12884;SDS011;6510;51.362;7.370;2023-09-07T14:40:22;0.90;;;0.90;;
12884;SDS011;6510;51.362;7.370;2023-09-07T14:42:49;0.73;;;0.73;;
12884;SDS011;6510;51.362;7.370;2023-09-07T14:45:18;0.88;;;0.88;;
12884;SDS011;6510;51.362;7.370;2023-09-07T14:47:44;0.60;;;0.60;;
12884;SDS011;6510;51.362;7.370;2023-09-07T14:50:10;0.70;;;0.70;;
12884;SDS011;6510;51.362;7.370;2023-09-07T14:52:36;0.60;;;0.60;;
12884;SDS011;6510;51.362;7.370;2023-09-07T14:55:06;0.60;;;0.60;;
12884;SDS011;6510;51.362;7.370;2023-09-07T14:57:32;0.40;;;0.40;;
12884;SDS011;6510;51.362;7.370;2023-09-07T14:59:59;0.60;;;0.60;;